Time,TemperatureF,DewpointF,PressureIn,WindDirection,WindDirectionDegrees,WindSpeedMPH,WindSpeedGustMPH,Humidity,HourlyPrecipIn,Conditions,Clouds,dailyrainin,SoftwareType,DateUTC
2013-01-19 00:00:00,34.6,20.5,30.01,SW,225,13.0,25.0,56,0.00,,,-99.99,WeatherLink 5.7,2013-01-19 05:00:00,
2013-01-19 00:10:00,34.6,20.5,30.01,SW,225,13.0,22.0,56,0.00,,,-99.99,WeatherLink 5.7,2013-01-19 05:10:00,
2013-01-19 00:20:00,34.7,21.0,30.01,SW,225,12.0,21.0,57,0.00,,,-99.99,WeatherLink 5.7,2013-01-19 05:20:00,
2013-01-19 00:30:00,34.7,21.0,30.01,SW,225,12.0,23.0,57,0.00,,,-99.99,WeatherLink 5.7,2013-01-19 05:30:00,
2013-01-19 00:40:00,34.8,21.1,30.00,SW,225,12.0,23.0,57,0.00,,,-99.99,WeatherLink 5.7,2013-01-19 05:40:00,
2013-01-19 00:50:00,34.9,21.2,30.00,SW,225,14.0,26.0,57,0.00,,,-99.99,WeatherLink 5.7,2013-01-19 05:50:00,
2013-01-19 01:00:00,35.1,21.4,30.00,SW,225,13.0,25.0,57,0.00,,,-99.99,WeatherLink 5.7,2013-01-19 06:00:00,
2013-01-19 01:10:00,35.1,21.4,30.00,SW,225,13.0,22.0,57,0.00,,,-99.99,WeatherLink 5.7,2013-01-19 06:10:00,
2013-01-19 01:20:00,35.1,21.4,29.99,SW,225,13.0,24.0,57,0.00,,,-99.99,WeatherLink 5.7,2013-01-19 06:20:00,
2013-01-19 01:30:00,35.3,21.6,29.99,SW,225,13.0,22.0,57,0.00,,,-99.99,WeatherLink 5.7,2013-01-19 06:30:00,
2013-01-19 01:40:00,35.4,21.7,29.99,SW,225,13.0,24.0,57,0.00,,,-99.99,WeatherLink 5.7,2013-01-19 06:40:00,
2013-01-19 01:50:00,35.4,21.7,29.99,SW,225,12.0,22.0,57,0.00,,,-99.99,WeatherLink 5.7,2013-01-19 06:50:00,
2013-01-19 02:00:00,35.3,21.6,29.99,SW,225,12.0,22.0,57,0.00,,,-99.99,WeatherLink 5.7,2013-01-19 07:00:00,
2013-01-19 02:10:00,35.2,21.5,29.99,SW,225,12.0,22.0,57,0.00,,,-99.99,WeatherLink 5.7,2013-01-19 07:10:00,
2013-01-19 02:20:00,35.3,21.6,29.98,SW,225,11.0,20.0,57,0.00,,,-99.99,WeatherLink 5.7,2013-01-19 07:20:00,
2013-01-19 02:30:00,35.5,21.8,29.99,SW,225,12.0,21.0,57,0.00,,,-99.99,WeatherLink 5.7,2013-01-19 07:30:00,
2013-01-19 02:40:00,35.5,21.8,29.99,SW,225,12.0,21.0,57,0.00,,,-99.99,WeatherLink 5.7,2013-01-19 07:40:00,
2013-01-19 02:50:00,35.6,21.9,29.99,SW,225,12.0,22.0,57,0.00,,,-99.99,WeatherLink 5.7,2013-01-19 07:50:00,
2013-01-19 03:00:00,35.8,22.0,29.98,SW,225,13.0,21.0,57,0.00,,,-99.99,WeatherLink 5.7,2013-01-19 08:00:00,
2013-01-19 03:10:00,35.9,22.1,29.98,SW,225,11.0,20.0,57,0.00,,,-99.99,WeatherLink 5.7,2013-01-19 08:10:00,
2013-01-19 03:20:00,35.8,22.0,29.98,SW,225,11.0,19.0,57,0.00,,,-99.99,WeatherLink 5.7,2013-01-19 08:20:00,
2013-01-19 03:30:00,35.7,21.9,29.98,SW,225,12.0,21.0,57,0.00,,,-99.99,WeatherLink 5.7,2013-01-19 08:30:00,
2013-01-19 03:40:00,35.7,21.9,29.98,SW,225,12.0,20.0,57,0.00,,,-99.99,WeatherLink 5.7,2013-01-19 08:40:00,
2013-01-19 03:50:00,35.6,21.9,29.98,SW,225,11.0,20.0,57,0.00,,,-99.99,WeatherLink 5.7,2013-01-19 08:50:00,
2013-01-19 04:00:00,35.7,21.9,29.98,SW,225,12.0,19.0,57,0.00,,,-99.99,WeatherLink 5.7,2013-01-19 09:00:00,
2013-01-19 04:10:00,36.0,22.2,29.98,SW,225,13.0,21.0,57,0.00,,,-99.99,WeatherLink 5.7,2013-01-19 09:10:00,
2013-01-19 04:20:00,36.2,22.0,29.98,SW,225,14.0,20.0,56,0.00,,,-99.99,WeatherLink 5.7,2013-01-19 09:20:00,
2013-01-19 04:30:00,36.3,22.1,29.98,SW,225,13.0,21.0,56,0.00,,,-99.99,WeatherLink 5.7,2013-01-19 09:30:00,
2013-01-19 04:40:00,36.2,22.4,29.97,SW,225,12.0,22.0,57,0.00,,,-99.99,WeatherLink 5.7,2013-01-19 09:40:00,
2013-01-19 04:50:00,36.1,22.3,29.97,SW,225,12.0,19.0,57,0.00,,,-99.99,WeatherLink 5.7,2013-01-19 09:50:00,
2013-01-19 05:00:00,36.1,22.3,29.97,SW,225,13.0,22.0,57,0.00,,,-99.99,WeatherLink 5.7,2013-01-19 10:00:00,
2013-01-19 05:10:00,36.1,22.3,29.97,SW,225,15.0,24.0,57,0.00,,,-99.99,WeatherLink 5.7,2013-01-19 10:10:00,
2013-01-19 05:20:00,36.3,22.5,29.97,SW,225,13.0,24.0,57,0.00,,,-99.99,WeatherLink 5.7,2013-01-19 10:20:00,
2013-01-19 05:30:00,36.2,22.4,29.97,SW,225,13.0,21.0,57,0.00,,,-99.99,WeatherLink 5.7,2013-01-19 10:30:00,
2013-01-19 05:40:00,36.1,22.3,29.97,SW,225,12.0,21.0,57,0.00,,,-99.99,WeatherLink 5.7,2013-01-19 10:40:00,
2013-01-19 05:50:00,36.0,22.6,29.97,SW,225,13.0,24.0,58,0.00,,,-99.99,WeatherLink 5.7,2013-01-19 10:50:00,
2013-01-19 06:00:00,36.0,22.6,29.97,SW,225,11.0,20.0,58,0.00,,,-99.99,WeatherLink 5.7,2013-01-19 11:00:00,
2013-01-19 06:10:00,35.8,22.5,29.97,SW,225,12.0,21.0,58,0.00,,,-99.99,WeatherLink 5.7,2013-01-19 11:10:00,
2013-01-19 06:20:00,35.8,22.5,29.97,SW,225,13.0,23.0,58,0.00,,,-99.99,WeatherLink 5.7,2013-01-19 11:20:00,
2013-01-19 06:30:00,35.8,22.9,29.98,SW,225,12.0,22.0,59,0.00,,,-99.99,WeatherLink 5.7,2013-01-19 11:30:00,
2013-01-19 06:40:00,35.9,22.5,29.97,SW,225,12.0,22.0,58,0.00,,,-99.99,WeatherLink 5.7,2013-01-19 11:40:00,
2013-01-19 06:50:00,35.9,23.0,29.98,SW,225,12.0,20.0,59,0.00,,,-99.99,WeatherLink 5.7,2013-01-19 11:50:00,
2013-01-19 07:00:00,35.8,22.9,29.97,SW,225,13.0,25.0,59,0.00,,,-99.99,WeatherLink 5.7,2013-01-19 12:00:00,
2013-01-19 07:10:00,35.9,23.0,29.97,SW,225,11.0,22.0,59,0.00,,,-99.99,WeatherLink 5.7,2013-01-19 12:10:00,
2013-01-19 07:20:00,35.8,22.9,29.97,SW,225,11.0,18.0,59,0.00,,,-99.99,WeatherLink 5.7,2013-01-19 12:20:00,
2013-01-19 07:30:00,35.6,23.1,29.98,SW,225,11.0,18.0,60,0.00,,,-99.99,WeatherLink 5.7,2013-01-19 12:30:00,
2013-01-19 07:40:00,35.5,23.0,29.97,SW,225,11.0,17.0,60,0.00,,,-99.99,WeatherLink 5.7,2013-01-19 12:40:00,
2013-01-19 07:50:00,35.3,23.2,29.98,SW,225,9.0,15.0,61,0.00,,,-99.99,WeatherLink 5.7,2013-01-19 12:50:00,
2013-01-19 08:00:00,35.1,23.0,29.98,SW,225,10.0,16.0,61,0.00,,,-99.99,WeatherLink 5.7,2013-01-19 13:00:00,
2013-01-19 08:10:00,35.0,22.9,29.98,SW,225,10.0,18.0,61,0.00,,,-99.99,WeatherLink 5.7,2013-01-19 13:10:00,
2013-01-19 08:20:00,35.1,23.0,29.98,SW,225,9.0,17.0,61,0.00,,,-99.99,WeatherLink 5.7,2013-01-19 13:20:00,
2013-01-19 08:30:00,35.2,23.5,29.97,SW,225,10.0,17.0,62,0.00,,,-99.99,WeatherLink 5.7,2013-01-19 13:30:00,
2013-01-19 08:40:00,35.4,23.3,29.98,SW,225,10.0,20.0,61,0.00,,,-99.99,WeatherLink 5.7,2013-01-19 13:40:00,
2013-01-19 08:50:00,35.8,23.7,29.98,SW,225,11.0,20.0,61,0.00,,,-99.99,WeatherLink 5.7,2013-01-19 13:50:00,
2013-01-19 09:00:00,36.3,23.7,29.98,SW,225,10.0,18.0,60,0.00,,,-99.99,WeatherLink 5.7,2013-01-19 14:00:00,
2013-01-19 09:10:00,37.2,24.2,29.98,SW,225,12.0,20.0,59,0.00,,,-99.99,WeatherLink 5.7,2013-01-19 14:10:00,
2013-01-19 09:20:00,38.7,24.3,29.98,SW,225,14.0,22.0,56,0.00,,,-99.99,WeatherLink 5.7,2013-01-19 14:20:00,
2013-01-19 09:30:00,39.8,24.9,29.98,SW,225,15.0,23.0,55,0.00,,,-99.99,WeatherLink 5.7,2013-01-19 14:30:00,
2013-01-19 09:40:00,40.5,25.1,29.98,SW,225,14.0,25.0,54,0.00,,,-99.99,WeatherLink 5.7,2013-01-19 14:40:00,
2013-01-19 09:50:00,40.7,25.3,29.98,SW,225,14.0,27.0,54,0.00,,,-99.99,WeatherLink 5.7,2013-01-19 14:50:00,
2013-01-19 10:00:00,40.4,25.5,29.98,SW,225,13.0,25.0,55,0.00,,,-99.99,WeatherLink 5.7,2013-01-19 15:00:00,
2013-01-19 10:10:00,40.9,25.1,29.98,SW,225,15.0,24.0,53,0.00,,,-99.99,WeatherLink 5.7,2013-01-19 15:10:00,
2013-01-19 10:20:00,42.0,26.1,29.98,WSW,247,13.0,23.0,53,0.00,,,-99.99,WeatherLink 5.7,2013-01-19 15:20:00,
2013-01-19 10:30:00,42.3,25.9,29.98,WSW,247,15.0,27.0,52,0.00,,,-99.99,WeatherLink 5.7,2013-01-19 15:30:00,
2013-01-19 10:40:00,41.6,26.2,29.98,WSW,247,14.0,22.0,54,0.00,,,-99.99,WeatherLink 5.7,2013-01-19 15:40:00,
2013-01-19 10:50:00,41.4,26.0,29.97,SW,225,15.0,24.0,54,0.00,,,-99.99,WeatherLink 5.7,2013-01-19 15:50:00,
2013-01-19 11:00:00,41.3,25.9,29.97,SW,225,13.0,23.0,54,0.00,,,-99.99,WeatherLink 5.7,2013-01-19 16:00:00,
2013-01-19 11:10:00,41.6,26.2,29.96,SW,225,12.0,22.0,54,0.00,,,-99.99,WeatherLink 5.7,2013-01-19 16:10:00,
2013-01-19 11:20:00,43.1,26.7,29.95,SW,225,12.0,20.0,52,0.00,,,-99.99,WeatherLink 5.7,2013-01-19 16:20:00,
2013-01-19 11:30:00,44.0,27.0,29.95,WSW,247,14.0,22.0,51,0.00,,,-99.99,WeatherLink 5.7,2013-01-19 16:30:00,
2013-01-19 11:40:00,44.1,27.1,29.94,SW,225,16.0,25.0,51,0.00,,,-99.99,WeatherLink 5.7,2013-01-19 16:40:00,
2013-01-19 11:50:00,44.6,27.1,29.94,SW,225,13.0,21.0,50,0.00,,,-99.99,WeatherLink 5.7,2013-01-19 16:50:00,
2013-01-19 12:00:00,46.0,27.9,29.93,WSW,247,15.0,29.0,49,0.00,,,-99.99,WeatherLink 5.7,2013-01-19 17:00:00,
2013-01-19 12:10:00,46.4,27.8,29.92,WSW,247,15.0,24.0,48,0.00,,,-99.99,WeatherLink 5.7,2013-01-19 17:10:00,
2013-01-19 12:20:00,46.7,27.5,29.92,WSW,247,16.0,26.0,47,0.00,,,-99.99,WeatherLink 5.7,2013-01-19 17:20:00,
2013-01-19 12:30:00,46.8,27.6,29.91,SW,225,16.0,24.0,47,0.00,,,-99.99,WeatherLink 5.7,2013-01-19 17:30:00,
2013-01-19 12:40:00,46.7,28.0,29.90,SW,225,14.0,24.0,48,0.00,,,-99.99,WeatherLink 5.7,2013-01-19 17:40:00,
2013-01-19 12:50:00,47.2,28.0,29.89,SW,225,14.0,26.0,47,0.00,,,-99.99,WeatherLink 5.7,2013-01-19 17:50:00,
2013-01-19 13:00:00,46.8,28.1,29.88,SW,225,14.0,27.0,48,0.00,,,-99.99,WeatherLink 5.7,2013-01-19 18:00:00,
2013-01-19 13:12:00,46.8,27.6,29.87,SW,225,17.0,29.0,47,0.00,,,-99.99,WeatherLink 5.7,2013-01-19 18:12:00,
2013-01-19 13:21:00,47.1,28.4,29.86,SW,225,16.0,27.0,48,0.00,,,-99.99,WeatherLink 5.7,2013-01-19 18:21:00,
2013-01-19 13:31:00,48.0,28.2,29.86,SW,225,15.0,23.0,46,0.00,,,-99.99,WeatherLink 5.7,2013-01-19 18:31:00,
2013-01-19 13:42:00,47.5,28.3,29.85,SW,225,16.0,30.0,47,0.00,,,-99.99,WeatherLink 5.7,2013-01-19 18:42:00,
2013-01-19 13:51:00,47.3,28.6,29.85,SW,225,16.0,25.0,48,0.00,,,-99.99,WeatherLink 5.7,2013-01-19 18:51:00,
2013-01-19 14:01:00,46.9,28.2,29.84,SW,225,14.0,33.0,48,0.00,,,-99.99,WeatherLink 5.7,2013-01-19 19:01:00,
2013-01-19 14:12:00,46.8,28.6,29.84,SW,225,15.0,23.0,49,0.00,,,-99.99,WeatherLink 5.7,2013-01-19 19:12:00,
2013-01-19 14:21:00,47.2,28.5,29.83,SW,225,15.0,26.0,48,0.00,,,-99.99,WeatherLink 5.7,2013-01-19 19:21:00,
2013-01-19 14:31:00,48.1,29.3,29.83,WSW,247,15.0,27.0,48,0.00,,,-99.99,WeatherLink 5.7,2013-01-19 19:31:00,
2013-01-19 14:40:00,48.5,29.2,29.82,SW,225,17.0,28.0,47,0.00,,,-99.99,WeatherLink 5.7,2013-01-19 19:40:00,
2013-01-19 14:52:00,47.9,29.1,29.82,SW,225,18.0,30.0,48,0.00,,,-99.99,WeatherLink 5.7,2013-01-19 19:52:00,
2013-01-19 15:01:00,47.4,29.2,29.82,SW,225,17.0,29.0,49,0.00,,,-99.99,WeatherLink 5.7,2013-01-19 20:01:00,
2013-01-19 15:10:00,47.0,29.3,29.81,SW,225,18.0,30.0,50,0.00,,,-99.99,WeatherLink 5.7,2013-01-19 20:10:00,
2013-01-19 15:21:00,46.9,29.7,29.81,SW,225,16.0,26.0,51,0.00,,,-99.99,WeatherLink 5.7,2013-01-19 20:21:00,
2013-01-19 15:31:00,46.8,29.6,29.80,SW,225,15.0,26.0,51,0.00,,,-99.99,WeatherLink 5.7,2013-01-19 20:31:00,
2013-01-19 15:42:00,47.0,29.3,29.79,SW,225,15.0,25.0,50,0.00,,,-99.99,WeatherLink 5.7,2013-01-19 20:42:00,
2013-01-19 15:51:00,47.1,29.4,29.78,SW,225,15.0,29.0,50,0.00,,,-99.99,WeatherLink 5.7,2013-01-19 20:51:00,
2013-01-19 16:00:00,47.2,30.0,29.79,SW,225,16.0,28.0,51,0.00,,,-99.99,WeatherLink 5.7,2013-01-19 21:00:00,
2013-01-19 16:12:00,47.1,30.4,29.78,SW,225,13.0,24.0,52,0.00,,,-99.99,WeatherLink 5.7,2013-01-19 21:12:00,
2013-01-19 16:21:00,46.9,30.2,29.78,SW,225,12.0,23.0,52,0.00,,,-99.99,WeatherLink 5.7,2013-01-19 21:21:00,
2013-01-19 16:31:00,46.7,30.0,29.77,SW,225,13.0,22.0,52,0.00,,,-99.99,WeatherLink 5.7,2013-01-19 21:31:00,
2013-01-19 16:41:00,46.5,29.8,29.77,SW,225,13.0,24.0,52,0.00,,,-99.99,WeatherLink 5.7,2013-01-19 21:41:00,
2013-01-19 16:51:00,46.3,30.1,29.77,SW,225,14.0,23.0,53,0.00,,,-99.99,WeatherLink 5.7,2013-01-19 21:51:00,
2013-01-19 17:01:00,46.0,29.8,29.78,SW,225,13.0,22.0,53,0.00,,,-99.99,WeatherLink 5.7,2013-01-19 22:01:00,
2013-01-19 17:12:00,45.9,30.2,29.78,WSW,247,12.0,21.0,54,0.00,,,-99.99,WeatherLink 5.7,2013-01-19 22:12:00,
2013-01-19 17:21:00,45.8,30.1,29.79,WSW,247,10.0,17.0,54,0.00,,,-99.99,WeatherLink 5.7,2013-01-19 22:21:00,
2013-01-19 17:31:00,45.6,30.3,29.79,WSW,247,10.0,19.0,55,0.00,,,-99.99,WeatherLink 5.7,2013-01-19 22:31:00,
2013-01-19 17:41:00,45.5,30.3,29.79,WSW,247,11.0,21.0,55,0.00,,,-99.99,WeatherLink 5.7,2013-01-19 22:41:00,
2013-01-19 17:51:00,45.5,30.3,29.78,WSW,247,14.0,23.0,55,0.00,,,-99.99,WeatherLink 5.7,2013-01-19 22:51:00,
2013-01-19 18:01:00,45.7,30.4,29.77,WSW,247,13.0,25.0,55,0.00,,,-99.99,WeatherLink 5.7,2013-01-19 23:01:00,
2013-01-19 18:11:00,45.7,30.4,29.77,WSW,247,13.0,22.0,55,0.00,,,-99.99,WeatherLink 5.7,2013-01-19 23:11:00,
2013-01-19 18:21:00,45.7,30.4,29.77,WSW,247,13.0,25.0,55,0.00,,,-99.99,WeatherLink 5.7,2013-01-19 23:21:00,
2013-01-19 18:31:00,45.6,30.3,29.76,WSW,247,14.0,23.0,55,0.00,,,-99.99,WeatherLink 5.7,2013-01-19 23:31:00,
2013-01-19 18:41:00,45.7,30.4,29.76,SW,225,15.0,26.0,55,0.00,,,-99.99,WeatherLink 5.7,2013-01-19 23:41:00,
2013-01-19 18:50:00,45.7,30.4,29.76,SW,225,16.0,25.0,55,0.00,,,-99.99,WeatherLink 5.7,2013-01-19 23:50:00,
2013-01-19 19:01:00,45.9,30.6,29.76,SW,225,17.0,29.0,55,0.00,,,-99.99,WeatherLink 5.7,2013-01-20 00:01:00,
2013-01-19 19:12:00,45.9,30.6,29.75,SW,225,17.0,28.0,55,0.00,,,-99.99,WeatherLink 5.7,2013-01-20 00:12:00,
2013-01-19 19:21:00,45.9,30.6,29.75,SW,225,16.0,30.0,55,0.00,,,-99.99,WeatherLink 5.7,2013-01-20 00:21:00,
2013-01-19 19:31:00,45.7,30.9,29.75,SW,225,16.0,24.0,56,0.00,,,-99.99,WeatherLink 5.7,2013-01-20 00:31:00,
2013-01-19 19:41:00,45.3,31.0,29.75,SW,225,14.0,26.0,57,0.00,,,-99.99,WeatherLink 5.7,2013-01-20 00:41:00,
2013-01-19 19:51:00,45.1,30.8,29.74,SW,225,16.0,27.0,57,0.00,,,-99.99,WeatherLink 5.7,2013-01-20 00:51:00,
2013-01-19 20:01:00,45.1,31.2,29.74,SW,225,15.0,27.0,58,0.00,,,-99.99,WeatherLink 5.7,2013-01-20 01:01:00,
2013-01-19 20:12:00,44.6,30.7,29.73,SW,225,14.0,27.0,58,0.00,,,-99.99,WeatherLink 5.7,2013-01-20 01:12:00,
2013-01-19 20:21:00,44.3,30.9,29.72,SW,225,14.0,29.0,59,0.00,,,-99.99,WeatherLink 5.7,2013-01-20 01:21:00,
2013-01-19 20:31:00,44.0,31.0,29.71,SW,225,15.0,27.0,60,0.00,,,-99.99,WeatherLink 5.7,2013-01-20 01:31:00,
2013-01-19 20:41:00,43.8,30.8,29.70,SW,225,14.0,25.0,60,0.00,,,-99.99,WeatherLink 5.7,2013-01-20 01:41:00,
2013-01-19 20:52:00,43.6,31.0,29.70,SW,225,16.0,26.0,61,0.00,,,-99.99,WeatherLink 5.7,2013-01-20 01:52:00,
2013-01-19 21:01:00,43.5,30.9,29.69,SW,225,17.0,28.0,61,0.00,,,-99.99,WeatherLink 5.7,2013-01-20 02:01:00,
2013-01-19 21:10:00,43.5,30.9,29.69,SW,225,17.0,28.0,61,0.00,,,-99.99,WeatherLink 5.7,2013-01-20 02:10:00,
2013-01-19 21:21:00,43.4,30.8,29.69,WSW,247,16.0,26.0,61,0.00,,,-99.99,WeatherLink 5.7,2013-01-20 02:21:00,
2013-01-19 21:31:00,43.2,31.1,29.69,SW,225,15.0,25.0,62,0.00,,,-99.99,WeatherLink 5.7,2013-01-20 02:31:00,
2013-01-19 21:42:00,43.1,31.0,29.68,SW,225,17.0,29.0,62,0.00,,,-99.99,WeatherLink 5.7,2013-01-20 02:42:00,
2013-01-19 21:51:00,43.0,31.3,29.67,WSW,247,16.0,25.0,63,0.00,,,-99.99,WeatherLink 5.7,2013-01-20 02:51:00,
2013-01-19 22:01:00,42.7,31.0,29.67,WSW,247,17.0,27.0,63,0.00,,,-99.99,WeatherLink 5.7,2013-01-20 03:01:00,
2013-01-19 22:10:00,42.7,31.4,29.67,WSW,247,16.0,26.0,64,0.00,,,-99.99,WeatherLink 5.7,2013-01-20 03:10:00,
2013-01-19 22:21:00,42.6,31.3,29.67,WSW,247,15.0,28.0,64,0.00,,,-99.99,WeatherLink 5.7,2013-01-20 03:21:00,
2013-01-19 22:31:00,42.5,31.2,29.66,WSW,247,16.0,26.0,64,0.00,,,-99.99,WeatherLink 5.7,2013-01-20 03:31:00,
2013-01-19 22:42:00,42.4,31.5,29.66,WSW,247,15.0,26.0,65,0.00,,,-99.99,WeatherLink 5.7,2013-01-20 03:42:00,
2013-01-19 22:52:00,42.2,31.6,29.66,WSW,247,14.0,28.0,66,0.00,,,-99.99,WeatherLink 5.7,2013-01-20 03:52:00,
2013-01-19 23:01:00,41.9,31.4,29.65,WSW,247,14.0,21.0,66,0.00,,,-99.99,WeatherLink 5.7,2013-01-20 04:01:00,
2013-01-19 23:11:00,41.7,31.5,29.65,WSW,247,13.0,23.0,67,0.00,,,-99.99,WeatherLink 5.7,2013-01-20 04:11:00,
2013-01-19 23:21:00,41.5,31.4,29.64,WSW,247,14.0,23.0,67,0.00,,,-99.99,WeatherLink 5.7,2013-01-20 04:21:00,
2013-01-19 23:30:00,41.5,31.4,29.64,SW,225,13.0,23.0,67,0.00,,,-99.99,WeatherLink 5.7,2013-01-20 04:30:00,
2013-01-19 23:41:00,41.3,31.5,29.64,WSW,247,14.0,23.0,68,0.00,,,-99.99,WeatherLink 5.7,2013-01-20 04:41:00,
2013-01-19 23:51:00,41.1,31.3,29.64,WSW,247,12.0,19.0,68,0.00,,,-99.99,WeatherLink 5.7,2013-01-20 04:51:00,